ΕΜΥ, Εθνική Μετεωρολογική Υπηρεσία - Δελτία Καιρού, Προγνώσεις

ΑΕΡΟΝΑΥΤΙΛΙΑ

GREEK AIRPORTS CODES

TAF LGTS 221100Z 2212/2312 18010KT 9999 FEW030 BECMG 2218/2220 VRB05KT BECMG 2310/2312 18010KT=

EUROPEAN AIRPORTS CODES